createdAt,value
2018-10-11T00:01:06.785Z,47.4
2018-10-11T00:11:20.399Z,48.1
2018-10-11T00:21:34.398Z,47.4
2018-10-11T00:32:24.943Z,47.9
2018-10-11T00:42:38.454Z,47.7
2018-10-11T00:52:53.047Z,47.5
2018-10-11T01:03:52.717Z,47.9
2018-10-11T01:14:06.759Z,47.5
2018-10-11T01:24:21.001Z,47.4
2018-10-11T01:34:35.424Z,47.5
2018-10-11T01:44:46.877Z,48.5
2018-10-11T01:54:58.741Z,48.7
2018-10-11T02:05:12.606Z,48.5
2018-10-11T02:25:43.448Z,48.9
2018-10-11T02:35:57.035Z,48.4
2018-10-11T02:46:42.483Z,48.1
2018-10-11T02:56:55.668Z,47.7
2018-10-11T03:07:09.326Z,47.9
2018-10-11T03:17:23.263Z,47.5
2018-10-11T03:27:37.752Z,47.9
2018-10-11T03:37:52.189Z,47.7
2018-10-11T03:48:37.560Z,47.6
2018-10-11T03:58:49.243Z,47.1
2018-10-11T04:09:02.765Z,46.8
2018-10-11T04:19:59.057Z,47.1
2018-10-11T04:40:29.333Z,48.0
2018-10-11T04:50:40.559Z,47.7
2018-10-11T05:01:26.166Z,47.9
2018-10-11T05:11:39.672Z,47.7
2018-10-11T05:21:53.907Z,48.0
2018-10-11T05:32:08.053Z,48.3
2018-10-11T05:42:53.909Z,48.6
2018-10-11T05:53:39.436Z,49.2
2018-10-11T06:04:24.329Z,49.4
2018-10-11T06:15:09.902Z,49.2
2018-10-11T06:25:54.474Z,49.6
2018-10-11T06:36:08.129Z,49.4
2018-10-11T06:46:19.234Z,49.6
2018-10-11T06:56:32.522Z,50.5
2018-10-11T07:06:46.791Z,50.5
2018-10-11T07:17:00.982Z,50.8
2018-10-11T07:27:15.397Z,52.3
2018-10-11T07:37:29.210Z,53.5
2018-10-11T07:47:43.716Z,55.2
2018-10-11T07:58:34.815Z,51.5
2018-10-11T08:08:49.711Z,46.9
2018-10-11T08:19:01.467Z,43.5
2018-10-11T08:29:15.277Z,40.3
2018-10-11T08:39:26.681Z,38.1
2018-10-11T11:09:10.552Z,29.1
2018-10-11T11:20:23.209Z,28.3
2018-10-11T11:42:40.046Z,27.2
2018-10-11T11:54:12.401Z,27.1
2018-10-11T12:17:02.232Z,27.9
2018-10-11T12:28:55.687Z,27.9
2018-10-11T12:40:26.527Z,28.4
2018-10-11T12:51:22.604Z,28.4
2018-10-11T13:04:23.547Z,28.8
2018-10-11T13:15:14.284Z,31.6
2018-10-11T13:27:16.185Z,32.7
2018-10-11T13:38:26.734Z,32.9
2018-10-11T14:46:42.276Z,34.5
2018-10-11T14:57:27.832Z,33.7
2018-10-11T15:07:39.280Z,33.9
2018-10-11T15:18:24.750Z,34.4
2018-10-11T15:28:37.502Z,35.1
2018-10-11T15:38:51.195Z,35.5
2018-10-11T15:49:37.245Z,36.4
2018-10-11T16:00:23.142Z,37.4
2018-10-11T16:10:37.487Z,37.5
2018-10-11T16:21:59.694Z,38.7
2018-10-11T16:32:13.654Z,39.2
2018-10-11T16:42:25.298Z,39.4
2018-10-11T16:53:10.462Z,40.4
2018-10-11T17:03:55.463Z,41.0
2018-10-11T17:14:41.294Z,41.2
2018-10-11T17:25:26.554Z,41.9
2018-10-11T17:35:40.542Z,42.1
2018-10-11T18:47:03.382Z,43.0
2018-10-11T18:59:47.263Z,43.7
2018-10-11T19:10:25.049Z,44.0
2018-10-11T19:21:21.256Z,44.1
2018-10-11T19:33:00.164Z,44.1
2018-10-11T19:43:52.526Z,44.4
2018-10-11T19:54:08.975Z,44.6
2018-10-11T20:04:23.140Z,44.8
2018-10-11T20:14:39.170Z,44.8
2018-10-11T20:24:53.788Z,44.9
2018-10-11T20:35:05.865Z,44.8
2018-10-11T20:45:51.319Z,44.9
2018-10-11T20:56:02.972Z,45.2
2018-10-11T21:06:48.410Z,45.1
2018-10-11T21:17:02.237Z,44.9
2018-10-11T21:27:16.583Z,44.8
2018-10-11T21:37:28.437Z,44.9
2018-10-11T21:47:42.819Z,44.8
2018-10-11T21:57:57.063Z,45.0
2018-10-11T22:08:12.915Z,45.3
2018-10-11T22:18:26.598Z,46.2
2018-10-11T22:29:11.943Z,46.1
2018-10-11T22:39:56.789Z,46.1
2018-10-11T22:50:10.176Z,46.0
2018-10-11T23:00:24.573Z,47.0
2018-10-11T23:10:38.846Z,46.2
2018-10-11T23:23:09.806Z,46.4
2018-10-11T23:33:24.197Z,46.3
2018-10-11T23:43:38.233Z,45.9
2018-10-11T23:53:50.659Z,46.9
